Terminal Aerodrome Forecast
Issued by NWS

Home | Current Version | Previous Version | Text Only | Print | Product List | Glossary On
Versions: 1 2 3 4 5 6 7 8 9 10 11 12 13 14 15 16 17 18 19 20 21
722
FTUS43 KDVN 111720
TAFCID
TAF
KCID 111720Z 1118/1218 17005KT P6SM SCT200
     FM120100 21007KT 3SM -SN BR OVC018
     FM120800 28009KT P6SM VCSH OVC025
     FM121100 30016KT P6SM SCT025 OVC100=

USA.gov is the U.S. government's official web portal to all federal, state and local government web resources and services.